sensor_id;sensor_type;location;lat;lon;timestamp;temperature;humidity
22986;DHT22;11659;51.092;7.080;2022-07-15T00:00:41;16.10;99.90
22986;DHT22;11659;51.092;7.080;2022-07-15T00:03:07;16.00;99.90
22986;DHT22;11659;51.092;7.080;2022-07-15T00:05:34;16.10;99.90
22986;DHT22;11659;51.092;7.080;2022-07-15T00:08:00;16.00;99.90
22986;DHT22;11659;51.092;7.080;2022-07-15T00:10:26;16.00;99.90
22986;DHT22;11659;51.092;7.080;2022-07-15T00:12:53;15.90;99.90
22986;DHT22;11659;51.092;7.080;2022-07-15T00:15:22;15.90;99.90
22986;DHT22;11659;51.092;7.080;2022-07-15T00:17:49;15.90;99.90
22986;DHT22;11659;51.092;7.080;2022-07-15T00:20:15;15.90;99.90
22986;DHT22;11659;51.092;7.080;2022-07-15T00:22:43;15.80;99.90
22986;DHT22;11659;51.092;7.080;2022-07-15T00:25:10;15.80;99.90
22986;DHT22;11659;51.092;7.080;2022-07-15T00:27:49;15.80;99.90
22986;DHT22;11659;51.092;7.080;2022-07-15T00:30:16;15.70;99.90
22986;DHT22;11659;51.092;7.080;2022-07-15T00:32:42;15.80;99.90
22986;DHT22;11659;51.092;7.080;2022-07-15T00:35:08;15.70;99.90
22986;DHT22;11659;51.092;7.080;2022-07-15T00:37:34;15.70;99.90
22986;DHT22;11659;51.092;7.080;2022-07-15T00:40:02;15.60;99.90
22986;DHT22;11659;51.092;7.080;2022-07-15T00:42:28;15.60;99.90
22986;DHT22;11659;51.092;7.080;2022-07-15T00:45:13;15.60;99.90
22986;DHT22;11659;51.092;7.080;2022-07-15T00:47:40;15.50;99.90
22986;DHT22;11659;51.092;7.080;2022-07-15T00:50:06;15.50;99.90
22986;DHT22;11659;51.092;7.080;2022-07-15T00:52:33;15.40;99.90
22986;DHT22;11659;51.092;7.080;2022-07-15T00:55:01;15.40;99.90
22986;DHT22;11659;51.092;7.080;2022-07-15T00:57:28;15.40;99.90
22986;DHT22;11659;51.092;7.080;2022-07-15T00:59:56;15.40;99.90
22986;DHT22;11659;51.092;7.080;2022-07-15T01:02:25;15.30;99.90
22986;DHT22;11659;51.092;7.080;2022-07-15T01:04:53;15.30;99.90
22986;DHT22;11659;51.092;7.080;2022-07-15T01:07:20;15.20;99.90
22986;DHT22;11659;51.092;7.080;2022-07-15T01:09:46;15.20;99.90
22986;DHT22;11659;51.092;7.080;2022-07-15T01:12:14;15.10;99.90
22986;DHT22;11659;51.092;7.080;2022-07-15T01:14:40;15.00;99.90
22986;DHT22;11659;51.092;7.080;2022-07-15T01:17:09;15.00;99.90
22986;DHT22;11659;51.092;7.080;2022-07-15T01:19:35;14.90;99.90
22986;DHT22;11659;51.092;7.080;2022-07-15T01:22:03;14.90;99.90
22986;DHT22;11659;51.092;7.080;2022-07-15T01:24:29;14.80;99.90
22986;DHT22;11659;51.092;7.080;2022-07-15T01:27:05;14.80;99.90
22986;DHT22;11659;51.092;7.080;2022-07-15T01:29:33;14.70;99.90
22986;DHT22;11659;51.092;7.080;2022-07-15T01:31:59;14.70;99.90
22986;DHT22;11659;51.092;7.080;2022-07-15T01:34:26;14.60;99.90
22986;DHT22;11659;51.092;7.080;2022-07-15T01:36:52;14.60;99.90
22986;DHT22;11659;51.092;7.080;2022-07-15T01:39:20;14.50;99.90
22986;DHT22;11659;51.092;7.080;2022-07-15T01:41:47;14.40;99.90
22986;DHT22;11659;51.092;7.080;2022-07-15T01:44:16;14.40;99.90
22986;DHT22;11659;51.092;7.080;2022-07-15T01:46:44;14.30;99.90
22986;DHT22;11659;51.092;7.080;2022-07-15T01:49:10;14.40;99.90
22986;DHT22;11659;51.092;7.080;2022-07-15T01:52:05;14.30;99.90
22986;DHT22;11659;51.092;7.080;2022-07-15T01:54:36;14.30;99.90
22986;DHT22;11659;51.092;7.080;2022-07-15T01:57:03;14.40;99.90
22986;DHT22;11659;51.092;7.080;2022-07-15T01:59:34;14.40;99.90
22986;DHT22;11659;51.092;7.080;2022-07-15T02:02:00;14.40;99.90
22986;DHT22;11659;51.092;7.080;2022-07-15T02:04:27;14.40;99.90
22986;DHT22;11659;51.092;7.080;2022-07-15T02:06:53;14.40;99.90
22986;DHT22;11659;51.092;7.080;2022-07-15T02:09:20;14.40;99.90
22986;DHT22;11659;51.092;7.080;2022-07-15T02:11:51;14.40;99.90
22986;DHT22;11659;51.092;7.080;2022-07-15T02:14:21;14.40;99.90
22986;DHT22;11659;51.092;7.080;2022-07-15T02:16:48;14.40;99.90
22986;DHT22;11659;51.092;7.080;2022-07-15T02:19:17;14.40;99.90
22986;DHT22;11659;51.092;7.080;2022-07-15T02:21:43;14.40;99.90
22986;DHT22;11659;51.092;7.080;2022-07-15T02:24:09;14.50;99.90
22986;DHT22;11659;51.092;7.080;2022-07-15T02:26:35;14.40;99.90
22986;DHT22;11659;51.092;7.080;2022-07-15T02:29:04;14.40;99.90
22986;DHT22;11659;51.092;7.080;2022-07-15T02:31:30;14.50;99.90
22986;DHT22;11659;51.092;7.080;2022-07-15T02:33:57;14.50;99.90
22986;DHT22;11659;51.092;7.080;2022-07-15T02:36:27;14.50;99.90
22986;DHT22;11659;51.092;7.080;2022-07-15T02:38:53;14.50;99.90
22986;DHT22;11659;51.092;7.080;2022-07-15T02:41:19;14.60;99.90
22986;DHT22;11659;51.092;7.080;2022-07-15T02:43:46;14.60;99.90
22986;DHT22;11659;51.092;7.080;2022-07-15T02:46:14;14.60;99.90
22986;DHT22;11659;51.092;7.080;2022-07-15T02:48:40;14.70;99.90
22986;DHT22;11659;51.092;7.080;2022-07-15T02:51:07;14.70;99.90
22986;DHT22;11659;51.092;7.080;2022-07-15T02:53:33;14.80;99.90
22986;DHT22;11659;51.092;7.080;2022-07-15T02:56:05;14.70;99.90
22986;DHT22;11659;51.092;7.080;2022-07-15T02:58:32;14.70;99.90
22986;DHT22;11659;51.092;7.080;2022-07-15T03:00:59;14.80;99.90
22986;DHT22;11659;51.092;7.080;2022-07-15T03:03:29;14.80;99.90
22986;DHT22;11659;51.092;7.080;2022-07-15T03:05:56;14.80;99.90
22986;DHT22;11659;51.092;7.080;2022-07-15T03:08:22;14.80;99.90
22986;DHT22;11659;51.092;7.080;2022-07-15T03:10:48;14.80;99.90
22986;DHT22;11659;51.092;7.080;2022-07-15T03:13:14;14.80;99.90
22986;DHT22;11659;51.092;7.080;2022-07-15T03:15:40;14.80;99.90
22986;DHT22;11659;51.092;7.080;2022-07-15T03:18:06;14.70;99.90
22986;DHT22;11659;51.092;7.080;2022-07-15T03:20:34;14.80;99.90
22986;DHT22;11659;51.092;7.080;2022-07-15T03:23:01;14.80;99.90
22986;DHT22;11659;51.092;7.080;2022-07-15T03:25:28;14.80;99.90
22986;DHT22;11659;51.092;7.080;2022-07-15T03:27:57;14.80;99.90
22986;DHT22;11659;51.092;7.080;2022-07-15T03:30:23;14.80;99.90
22986;DHT22;11659;51.092;7.080;2022-07-15T03:32:49;14.70;99.90
22986;DHT22;11659;51.092;7.080;2022-07-15T03:35:16;14.70;99.90
22986;DHT22;11659;51.092;7.080;2022-07-15T03:37:44;14.70;99.90
22986;DHT22;11659;51.092;7.080;2022-07-15T03:40:11;14.70;99.90
22986;DHT22;11659;51.092;7.080;2022-07-15T03:42:37;14.60;99.90
22986;DHT22;11659;51.092;7.080;2022-07-15T03:45:04;14.60;99.90
22986;DHT22;11659;51.092;7.080;2022-07-15T03:47:31;14.60;99.90
22986;DHT22;11659;51.092;7.080;2022-07-15T03:49:57;14.60;99.90
22986;DHT22;11659;51.092;7.080;2022-07-15T03:52:23;14.60;99.90
22986;DHT22;11659;51.092;7.080;2022-07-15T03:54:51;14.60;99.90
22986;DHT22;11659;51.092;7.080;2022-07-15T03:57:17;14.60;99.90
22986;DHT22;11659;51.092;7.080;2022-07-15T03:59:43;14.60;99.90
22986;DHT22;11659;51.092;7.080;2022-07-15T04:02:09;14.50;99.90
22986;DHT22;11659;51.092;7.080;2022-07-15T04:04:35;14.60;99.90
22986;DHT22;11659;51.092;7.080;2022-07-15T04:07:01;14.60;99.90
22986;DHT22;11659;51.092;7.080;2022-07-15T04:09:27;14.60;99.90
22986;DHT22;11659;51.092;7.080;2022-07-15T04:11:54;14.60;99.90
22986;DHT22;11659;51.092;7.080;2022-07-15T04:14:20;14.70;99.90
22986;DHT22;11659;51.092;7.080;2022-07-15T04:16:48;14.70;99.90
22986;DHT22;11659;51.092;7.080;2022-07-15T04:19:24;14.70;99.90
22986;DHT22;11659;51.092;7.080;2022-07-15T04:21:54;14.70;99.90
22986;DHT22;11659;51.092;7.080;2022-07-15T04:24:20;14.80;99.90
22986;DHT22;11659;51.092;7.080;2022-07-15T04:26:46;14.80;99.90
22986;DHT22;11659;51.092;7.080;2022-07-15T04:29:16;14.90;99.90
22986;DHT22;11659;51.092;7.080;2022-07-15T04:31:44;14.90;99.90
22986;DHT22;11659;51.092;7.080;2022-07-15T04:34:16;14.90;99.90
22986;DHT22;11659;51.092;7.080;2022-07-15T04:36:44;15.00;99.90
22986;DHT22;11659;51.092;7.080;2022-07-15T04:39:11;15.00;99.90
22986;DHT22;11659;51.092;7.080;2022-07-15T04:41:36;15.10;99.90
22986;DHT22;11659;51.092;7.080;2022-07-15T04:44:04;15.10;99.90
22986;DHT22;11659;51.092;7.080;2022-07-15T04:46:33;15.10;99.90
22986;DHT22;11659;51.092;7.080;2022-07-15T04:49:19;15.10;99.90
22986;DHT22;11659;51.092;7.080;2022-07-15T04:52:04;15.10;99.90
22986;DHT22;11659;51.092;7.080;2022-07-15T04:54:33;15.10;99.90
22986;DHT22;11659;51.092;7.080;2022-07-15T04:56:59;15.10;99.90
22986;DHT22;11659;51.092;7.080;2022-07-15T04:59:26;15.20;99.90
22986;DHT22;11659;51.092;7.080;2022-07-15T05:01:54;15.10;99.90
22986;DHT22;11659;51.092;7.080;2022-07-15T05:04:32;15.20;99.90
22986;DHT22;11659;51.092;7.080;2022-07-15T05:06:58;15.20;99.90
22986;DHT22;11659;51.092;7.080;2022-07-15T05:09:24;15.20;99.90
22986;DHT22;11659;51.092;7.080;2022-07-15T05:11:50;15.20;99.90
22986;DHT22;11659;51.092;7.080;2022-07-15T05:14:17;15.30;99.90
22986;DHT22;11659;51.092;7.080;2022-07-15T05:16:44;15.30;99.90
22986;DHT22;11659;51.092;7.080;2022-07-15T05:19:12;15.30;99.90
22986;DHT22;11659;51.092;7.080;2022-07-15T05:21:39;15.30;99.90
22986;DHT22;11659;51.092;7.080;2022-07-15T05:24:06;15.40;99.90
22986;DHT22;11659;51.092;7.080;2022-07-15T05:26:32;15.40;99.90
22986;DHT22;11659;51.092;7.080;2022-07-15T05:28:59;15.40;99.90
22986;DHT22;11659;51.092;7.080;2022-07-15T05:31:25;15.50;99.90
22986;DHT22;11659;51.092;7.080;2022-07-15T05:33:51;15.50;99.90
22986;DHT22;11659;51.092;7.080;2022-07-15T05:36:20;15.50;99.90
22986;DHT22;11659;51.092;7.080;2022-07-15T05:38:46;15.60;99.90
22986;DHT22;11659;51.092;7.080;2022-07-15T05:41:12;15.60;99.90
22986;DHT22;11659;51.092;7.080;2022-07-15T05:43:38;15.60;99.90
22986;DHT22;11659;51.092;7.080;2022-07-15T05:46:05;15.60;99.90
22986;DHT22;11659;51.092;7.080;2022-07-15T05:48:41;15.70;99.90
22986;DHT22;11659;51.092;7.080;2022-07-15T05:51:07;15.70;99.90
22986;DHT22;11659;51.092;7.080;2022-07-15T05:53:34;15.70;99.90
22986;DHT22;11659;51.092;7.080;2022-07-15T05:56:05;15.80;99.90
22986;DHT22;11659;51.092;7.080;2022-07-15T05:58:32;15.80;99.90
22986;DHT22;11659;51.092;7.080;2022-07-15T06:00:58;15.90;99.90
22986;DHT22;11659;51.092;7.080;2022-07-15T06:03:30;15.90;99.90
22986;DHT22;11659;51.092;7.080;2022-07-15T06:05:56;16.00;99.90
22986;DHT22;11659;51.092;7.080;2022-07-15T06:08:24;16.00;99.90
22986;DHT22;11659;51.092;7.080;2022-07-15T06:10:52;16.10;99.90
22986;DHT22;11659;51.092;7.080;2022-07-15T06:13:20;16.10;99.90
22986;DHT22;11659;51.092;7.080;2022-07-15T06:15:48;16.10;99.90
22986;DHT22;11659;51.092;7.080;2022-07-15T06:18:19;16.10;99.90
22986;DHT22;11659;51.092;7.080;2022-07-15T06:20:45;16.10;99.90
22986;DHT22;11659;51.092;7.080;2022-07-15T06:23:11;16.10;99.90
22986;DHT22;11659;51.092;7.080;2022-07-15T06:25:38;16.10;99.90
22986;DHT22;11659;51.092;7.080;2022-07-15T06:28:05;16.10;99.90
22986;DHT22;11659;51.092;7.080;2022-07-15T06:30:31;16.10;99.90
22986;DHT22;11659;51.092;7.080;2022-07-15T06:32:57;16.00;99.90
22986;DHT22;11659;51.092;7.080;2022-07-15T06:35:26;16.10;99.90
22986;DHT22;11659;51.092;7.080;2022-07-15T06:37:52;16.10;99.90
22986;DHT22;11659;51.092;7.080;2022-07-15T06:40:18;16.10;99.90
22986;DHT22;11659;51.092;7.080;2022-07-15T06:42:44;16.10;99.90
22986;DHT22;11659;51.092;7.080;2022-07-15T06:45:15;16.20;99.90
22986;DHT22;11659;51.092;7.080;2022-07-15T06:47:42;16.30;99.90
22986;DHT22;11659;51.092;7.080;2022-07-15T06:50:08;16.40;99.90
22986;DHT22;11659;51.092;7.080;2022-07-15T06:52:34;16.40;99.90
22986;DHT22;11659;51.092;7.080;2022-07-15T06:55:01;16.40;99.90
22986;DHT22;11659;51.092;7.080;2022-07-15T06:57:30;16.50;99.90
22986;DHT22;11659;51.092;7.080;2022-07-15T06:59:56;16.50;99.90
22986;DHT22;11659;51.092;7.080;2022-07-15T07:02:24;16.60;99.90
22986;DHT22;11659;51.092;7.080;2022-07-15T07:04:51;16.70;99.90
22986;DHT22;11659;51.092;7.080;2022-07-15T07:07:17;16.70;99.90
22986;DHT22;11659;51.092;7.080;2022-07-15T07:09:44;16.80;99.90
22986;DHT22;11659;51.092;7.080;2022-07-15T07:12:10;16.90;99.90
22986;DHT22;11659;51.092;7.080;2022-07-15T07:14:37;16.90;99.90
22986;DHT22;11659;51.092;7.080;2022-07-15T07:17:03;17.00;99.90
22986;DHT22;11659;51.092;7.080;2022-07-15T07:19:30;17.10;99.90
22986;DHT22;11659;51.092;7.080;2022-07-15T07:21:56;17.30;99.90
22986;DHT22;11659;51.092;7.080;2022-07-15T07:24:22;17.30;99.90
22986;DHT22;11659;51.092;7.080;2022-07-15T07:26:48;17.30;99.90
22986;DHT22;11659;51.092;7.080;2022-07-15T07:29:14;17.30;99.90
22986;DHT22;11659;51.092;7.080;2022-07-15T07:31:47;17.20;99.90
22986;DHT22;11659;51.092;7.080;2022-07-15T07:34:13;17.30;99.90
22986;DHT22;11659;51.092;7.080;2022-07-15T07:36:41;17.30;99.90
22986;DHT22;11659;51.092;7.080;2022-07-15T07:39:07;17.20;99.90
22986;DHT22;11659;51.092;7.080;2022-07-15T07:41:33;17.20;99.90
22986;DHT22;11659;51.092;7.080;2022-07-15T07:43:59;17.10;99.90
22986;DHT22;11659;51.092;7.080;2022-07-15T07:46:25;17.10;99.90
22986;DHT22;11659;51.092;7.080;2022-07-15T07:48:51;17.00;99.90
22986;DHT22;11659;51.092;7.080;2022-07-15T07:51:17;17.00;99.90
22986;DHT22;11659;51.092;7.080;2022-07-15T07:53:49;16.90;99.90
22986;DHT22;11659;51.092;7.080;2022-07-15T07:56:15;16.90;99.90
22986;DHT22;11659;51.092;7.080;2022-07-15T07:58:41;16.80;99.90
22986;DHT22;11659;51.092;7.080;2022-07-15T08:01:07;16.80;99.90
22986;DHT22;11659;51.092;7.080;2022-07-15T08:03:34;16.80;99.90
22986;DHT22;11659;51.092;7.080;2022-07-15T08:06:00;16.80;99.90
22986;DHT22;11659;51.092;7.080;2022-07-15T08:08:26;16.80;99.90
22986;DHT22;11659;51.092;7.080;2022-07-15T08:10:55;16.80;99.90
22986;DHT22;11659;51.092;7.080;2022-07-15T08:13:23;16.80;99.90
22986;DHT22;11659;51.092;7.080;2022-07-15T08:15:50;16.80;99.90
22986;DHT22;11659;51.092;7.080;2022-07-15T08:18:18;16.90;99.90
22986;DHT22;11659;51.092;7.080;2022-07-15T08:20:45;17.10;99.90
22986;DHT22;11659;51.092;7.080;2022-07-15T08:23:11;17.30;99.90
22986;DHT22;11659;51.092;7.080;2022-07-15T08:25:38;17.50;99.90
22986;DHT22;11659;51.092;7.080;2022-07-15T08:28:06;17.60;99.90
22986;DHT22;11659;51.092;7.080;2022-07-15T08:30:33;17.80;99.90
22986;DHT22;11659;51.092;7.080;2022-07-15T08:32:59;17.80;99.90
22986;DHT22;11659;51.092;7.080;2022-07-15T08:35:26;17.90;99.80
22986;DHT22;11659;51.092;7.080;2022-07-15T08:37:52;18.00;99.70
22986;DHT22;11659;51.092;7.080;2022-07-15T08:40:18;18.10;99.40
22986;DHT22;11659;51.092;7.080;2022-07-15T08:42:45;18.10;99.20
22986;DHT22;11659;51.092;7.080;2022-07-15T08:45:16;18.30;98.90
22986;DHT22;11659;51.092;7.080;2022-07-15T08:47:44;18.40;98.50
22986;DHT22;11659;51.092;7.080;2022-07-15T08:50:12;18.40;97.90
22986;DHT22;11659;51.092;7.080;2022-07-15T08:52:39;18.50;98.00
22986;DHT22;11659;51.092;7.080;2022-07-15T08:55:06;18.60;97.70
22986;DHT22;11659;51.092;7.080;2022-07-15T08:57:33;18.80;97.10
22986;DHT22;11659;51.092;7.080;2022-07-15T08:59:59;18.90;96.40
22986;DHT22;11659;51.092;7.080;2022-07-15T09:02:27;19.00;96.10
22986;DHT22;11659;51.092;7.080;2022-07-15T09:05:19;19.00;95.90
22986;DHT22;11659;51.092;7.080;2022-07-15T09:07:56;19.10;95.40
22986;DHT22;11659;51.092;7.080;2022-07-15T09:10:23;19.10;94.70
22986;DHT22;11659;51.092;7.080;2022-07-15T09:12:51;19.10;94.90
22986;DHT22;11659;51.092;7.080;2022-07-15T09:15:31;19.20;95.00
22986;DHT22;11659;51.092;7.080;2022-07-15T09:18:08;19.20;95.00
22986;DHT22;11659;51.092;7.080;2022-07-15T09:20:35;19.20;95.10
22986;DHT22;11659;51.092;7.080;2022-07-15T09:23:02;19.20;95.20
22986;DHT22;11659;51.092;7.080;2022-07-15T09:25:29;19.10;95.20
22986;DHT22;11659;51.092;7.080;2022-07-15T09:27:55;19.10;95.30
22986;DHT22;11659;51.092;7.080;2022-07-15T09:30:24;19.10;95.40
22986;DHT22;11659;51.092;7.080;2022-07-15T09:33:11;19.00;95.50
22986;DHT22;11659;51.092;7.080;2022-07-15T09:36:09;19.00;95.40
22986;DHT22;11659;51.092;7.080;2022-07-15T09:38:42;19.00;95.40
22986;DHT22;11659;51.092;7.080;2022-07-15T09:41:13;19.10;95.30
22986;DHT22;11659;51.092;7.080;2022-07-15T09:43:48;19.20;95.20
22986;DHT22;11659;51.092;7.080;2022-07-15T09:46:15;19.20;95.00
22986;DHT22;11659;51.092;7.080;2022-07-15T09:48:43;19.10;95.10
22986;DHT22;11659;51.092;7.080;2022-07-15T09:51:11;19.00;95.30
22986;DHT22;11659;51.092;7.080;2022-07-15T09:53:38;19.10;95.30
22986;DHT22;11659;51.092;7.080;2022-07-15T09:56:08;19.10;95.30
22986;DHT22;11659;51.092;7.080;2022-07-15T09:58:39;19.10;95.40
22986;DHT22;11659;51.092;7.080;2022-07-15T10:01:06;19.10;95.30
22986;DHT22;11659;51.092;7.080;2022-07-15T10:03:33;19.00;95.30
22986;DHT22;11659;51.092;7.080;2022-07-15T10:06:01;19.10;95.30
22986;DHT22;11659;51.092;7.080;2022-07-15T10:08:29;19.20;95.10
22986;DHT22;11659;51.092;7.080;2022-07-15T10:10:56;19.20;95.10
22986;DHT22;11659;51.092;7.080;2022-07-15T10:13:53;19.30;95.10
22986;DHT22;11659;51.092;7.080;2022-07-15T10:16:35;19.50;94.90
22986;DHT22;11659;51.092;7.080;2022-07-15T10:19:12;19.70;94.60
22986;DHT22;11659;51.092;7.080;2022-07-15T10:21:45;19.90;94.40
22986;DHT22;11659;51.092;7.080;2022-07-15T10:24:39;20.10;94.00
22986;DHT22;11659;51.092;7.080;2022-07-15T10:27:19;20.30;93.50
22986;DHT22;11659;51.092;7.080;2022-07-15T10:29:49;20.30;93.20
22986;DHT22;11659;51.092;7.080;2022-07-15T10:32:15;20.30;93.10
22986;DHT22;11659;51.092;7.080;2022-07-15T10:34:41;20.30;93.10
22986;DHT22;11659;51.092;7.080;2022-07-15T10:37:10;20.30;92.90
22986;DHT22;11659;51.092;7.080;2022-07-15T10:39:51;20.30;92.90
22986;DHT22;11659;51.092;7.080;2022-07-15T10:42:18;20.40;93.20
22986;DHT22;11659;51.092;7.080;2022-07-15T10:45:06;20.50;92.70
22986;DHT22;11659;51.092;7.080;2022-07-15T10:47:33;20.60;92.30
22986;DHT22;11659;51.092;7.080;2022-07-15T10:49:59;20.80;92.10
22986;DHT22;11659;51.092;7.080;2022-07-15T10:52:28;20.90;91.80
22986;DHT22;11659;51.092;7.080;2022-07-15T10:55:03;20.90;91.50
22986;DHT22;11659;51.092;7.080;2022-07-15T10:57:50;21.00;91.50
22986;DHT22;11659;51.092;7.080;2022-07-15T11:00:26;21.10;91.30
22986;DHT22;11659;51.092;7.080;2022-07-15T11:03:01;21.10;91.10
22986;DHT22;11659;51.092;7.080;2022-07-15T11:05:28;21.10;90.90
22986;DHT22;11659;51.092;7.080;2022-07-15T11:07:55;21.10;90.90
22986;DHT22;11659;51.092;7.080;2022-07-15T11:10:22;21.10;91.00
22986;DHT22;11659;51.092;7.080;2022-07-15T11:12:56;21.00;91.00
22986;DHT22;11659;51.092;7.080;2022-07-15T11:15:25;21.10;91.10
22986;DHT22;11659;51.092;7.080;2022-07-15T11:17:53;21.10;91.10
22986;DHT22;11659;51.092;7.080;2022-07-15T11:20:22;21.20;90.80
22986;DHT22;11659;51.092;7.080;2022-07-15T11:22:51;21.20;90.60
22986;DHT22;11659;51.092;7.080;2022-07-15T11:25:20;21.30;90.40
22986;DHT22;11659;51.092;7.080;2022-07-15T11:27:56;21.40;90.30
22986;DHT22;11659;51.092;7.080;2022-07-15T11:30:27;21.60;90.20
22986;DHT22;11659;51.092;7.080;2022-07-15T11:32:57;21.60;90.00
22986;DHT22;11659;51.092;7.080;2022-07-15T11:35:24;21.50;90.00
22986;DHT22;11659;51.092;7.080;2022-07-15T11:37:58;21.50;89.80
22986;DHT22;11659;51.092;7.080;2022-07-15T11:40:25;21.30;90.00
22986;DHT22;11659;51.092;7.080;2022-07-15T11:43:13;21.20;90.00
22986;DHT22;11659;51.092;7.080;2022-07-15T11:45:58;21.10;90.30
22986;DHT22;11659;51.092;7.080;2022-07-15T11:48:24;21.20;90.40
22986;DHT22;11659;51.092;7.080;2022-07-15T11:50:52;21.40;90.50
22986;DHT22;11659;51.092;7.080;2022-07-15T11:53:18;21.70;90.50
22986;DHT22;11659;51.092;7.080;2022-07-15T11:55:51;22.00;89.60
22986;DHT22;11659;51.092;7.080;2022-07-15T11:58:25;22.20;88.10
22986;DHT22;11659;51.092;7.080;2022-07-15T12:00:51;22.20;88.00
22986;DHT22;11659;51.092;7.080;2022-07-15T12:03:17;22.10;88.10
22986;DHT22;11659;51.092;7.080;2022-07-15T12:05:59;22.00;88.50
22986;DHT22;11659;51.092;7.080;2022-07-15T12:08:36;21.90;88.40
22986;DHT22;11659;51.092;7.080;2022-07-15T12:11:09;21.80;89.60
22986;DHT22;11659;51.092;7.080;2022-07-15T12:13:44;22.00;90.00
22986;DHT22;11659;51.092;7.080;2022-07-15T12:16:11;22.20;89.00
22986;DHT22;11659;51.092;7.080;2022-07-15T12:18:37;22.50;87.50
22986;DHT22;11659;51.092;7.080;2022-07-15T12:21:03;22.70;86.40
22986;DHT22;11659;51.092;7.080;2022-07-15T12:23:29;22.80;86.20
22986;DHT22;11659;51.092;7.080;2022-07-15T12:26:06;22.90;86.20
22986;DHT22;11659;51.092;7.080;2022-07-15T12:28:34;23.10;84.90
22986;DHT22;11659;51.092;7.080;2022-07-15T12:31:00;23.30;83.60
22986;DHT22;11659;51.092;7.080;2022-07-15T12:33:26;23.40;83.50
22986;DHT22;11659;51.092;7.080;2022-07-15T12:36:15;23.70;84.10
22986;DHT22;11659;51.092;7.080;2022-07-15T12:38:41;24.00;84.00
22986;DHT22;11659;51.092;7.080;2022-07-15T12:41:22;24.30;83.10
22986;DHT22;11659;51.092;7.080;2022-07-15T12:43:51;24.50;82.60
22986;DHT22;11659;51.092;7.080;2022-07-15T12:46:17;24.70;82.20
22986;DHT22;11659;51.092;7.080;2022-07-15T12:48:46;25.00;81.30
22986;DHT22;11659;51.092;7.080;2022-07-15T12:51:13;25.20;80.90
22986;DHT22;11659;51.092;7.080;2022-07-15T12:53:40;25.40;80.50
22986;DHT22;11659;51.092;7.080;2022-07-15T12:56:07;25.50;78.80
22986;DHT22;11659;51.092;7.080;2022-07-15T12:58:35;25.50;77.90
22986;DHT22;11659;51.092;7.080;2022-07-15T13:01:07;25.50;77.50
22986;DHT22;11659;51.092;7.080;2022-07-15T13:03:33;25.30;77.60
22986;DHT22;11659;51.092;7.080;2022-07-15T13:06:00;25.20;77.60
22986;DHT22;11659;51.092;7.080;2022-07-15T13:08:28;24.90;77.50
22986;DHT22;11659;51.092;7.080;2022-07-15T13:10:56;24.70;78.00
22986;DHT22;11659;51.092;7.080;2022-07-15T13:13:23;24.40;78.50
22986;DHT22;11659;51.092;7.080;2022-07-15T13:15:51;24.10;79.40
22986;DHT22;11659;51.092;7.080;2022-07-15T13:18:18;23.80;79.80
22986;DHT22;11659;51.092;7.080;2022-07-15T13:20:45;23.60;80.10
22986;DHT22;11659;51.092;7.080;2022-07-15T13:23:11;23.30;80.30
22986;DHT22;11659;51.092;7.080;2022-07-15T13:25:38;23.10;80.50
22986;DHT22;11659;51.092;7.080;2022-07-15T13:28:07;22.90;81.10
22986;DHT22;11659;51.092;7.080;2022-07-15T13:30:33;22.80;81.50
22986;DHT22;11659;51.092;7.080;2022-07-15T13:33:00;22.80;81.90
22986;DHT22;11659;51.092;7.080;2022-07-15T13:35:27;22.70;81.80
22986;DHT22;11659;51.092;7.080;2022-07-15T13:37:53;22.70;81.80
22986;DHT22;11659;51.092;7.080;2022-07-15T13:40:19;22.60;82.00
22986;DHT22;11659;51.092;7.080;2022-07-15T13:42:45;22.50;82.30
22986;DHT22;11659;51.092;7.080;2022-07-15T13:45:13;22.40;82.50
22986;DHT22;11659;51.092;7.080;2022-07-15T13:47:39;22.50;82.70
22986;DHT22;11659;51.092;7.080;2022-07-15T13:50:08;22.30;82.90
22986;DHT22;11659;51.092;7.080;2022-07-15T13:52:55;22.20;83.40
22986;DHT22;11659;51.092;7.080;2022-07-15T13:55:22;22.20;83.60
22986;DHT22;11659;51.092;7.080;2022-07-15T13:57:48;22.10;83.70
22986;DHT22;11659;51.092;7.080;2022-07-15T14:00:21;22.10;84.10
22986;DHT22;11659;51.092;7.080;2022-07-15T14:02:48;22.10;83.90
22986;DHT22;11659;51.092;7.080;2022-07-15T14:05:16;22.20;84.00
22986;DHT22;11659;51.092;7.080;2022-07-15T14:07:42;22.20;84.40
22986;DHT22;11659;51.092;7.080;2022-07-15T14:10:09;22.20;83.70
22986;DHT22;11659;51.092;7.080;2022-07-15T14:12:35;22.30;83.60
22986;DHT22;11659;51.092;7.080;2022-07-15T14:15:01;22.30;83.50
22986;DHT22;11659;51.092;7.080;2022-07-15T14:17:28;22.40;83.40
22986;DHT22;11659;51.092;7.080;2022-07-15T14:19:57;22.40;83.50
22986;DHT22;11659;51.092;7.080;2022-07-15T14:22:25;22.40;83.30
22986;DHT22;11659;51.092;7.080;2022-07-15T14:24:51;22.40;83.30
22986;DHT22;11659;51.092;7.080;2022-07-15T14:27:18;22.30;83.10
22986;DHT22;11659;51.092;7.080;2022-07-15T14:29:43;22.30;83.30
22986;DHT22;11659;51.092;7.080;2022-07-15T14:32:09;22.30;83.60
22986;DHT22;11659;51.092;7.080;2022-07-15T14:34:35;22.20;83.80
22986;DHT22;11659;51.092;7.080;2022-07-15T14:37:01;22.30;84.00
22986;DHT22;11659;51.092;7.080;2022-07-15T14:39:29;22.30;83.60
22986;DHT22;11659;51.092;7.080;2022-07-15T14:41:55;22.40;83.10
22986;DHT22;11659;51.092;7.080;2022-07-15T14:44:20;22.40;82.50
22986;DHT22;11659;51.092;7.080;2022-07-15T14:46:46;22.40;82.10
22986;DHT22;11659;51.092;7.080;2022-07-15T14:49:12;22.30;82.10
22986;DHT22;11659;51.092;7.080;2022-07-15T14:51:38;22.20;82.00
22986;DHT22;11659;51.092;7.080;2022-07-15T14:54:04;22.20;82.00
22986;DHT22;11659;51.092;7.080;2022-07-15T14:56:31;22.10;82.20
22986;DHT22;11659;51.092;7.080;2022-07-15T14:58:57;22.10;82.60
22986;DHT22;11659;51.092;7.080;2022-07-15T15:01:35;22.10;82.90
22986;DHT22;11659;51.092;7.080;2022-07-15T15:04:01;22.10;82.90
22986;DHT22;11659;51.092;7.080;2022-07-15T15:06:27;22.10;82.70
22986;DHT22;11659;51.092;7.080;2022-07-15T15:08:53;22.20;83.00
22986;DHT22;11659;51.092;7.080;2022-07-15T15:11:19;22.30;83.00
22986;DHT22;11659;51.092;7.080;2022-07-15T15:13:47;22.40;82.50
22986;DHT22;11659;51.092;7.080;2022-07-15T15:16:13;22.40;83.00
22986;DHT22;11659;51.092;7.080;2022-07-15T15:18:39;22.50;82.30
22986;DHT22;11659;51.092;7.080;2022-07-15T15:21:05;22.60;81.60
22986;DHT22;11659;51.092;7.080;2022-07-15T15:23:32;22.70;81.30
22986;DHT22;11659;51.092;7.080;2022-07-15T15:25:58;22.90;81.20
22986;DHT22;11659;51.092;7.080;2022-07-15T15:28:42;22.90;80.80
22986;DHT22;11659;51.092;7.080;2022-07-15T15:31:10;22.90;80.90
22986;DHT22;11659;51.092;7.080;2022-07-15T15:33:36;22.80;80.90
22986;DHT22;11659;51.092;7.080;2022-07-15T15:36:02;22.70;81.00
22986;DHT22;11659;51.092;7.080;2022-07-15T15:38:28;22.70;81.00